Time;durP1;ratioP1;P1;durP2;ratioP2;P2;SDS_P1;SDS_P2;PMS_P1;PMS_P2;Temp;Humidity;BMP_temperature;BMP_pressure;BME280_temperature;BME280_humidity;BME280_pressure;Samples;Min_cycle;Max_cycle;Signal;HPM_P1;HPM_P2
2021/12/05 00:19:03;;;;;;;9.00;8.27;;;;;;;9.56;89.82;99026.06;5014659;28;20651;-62
2021/12/05 00:21:50;;;;;;;9.27;8.57;;;;;;;9.55;90.70;99026.25;5013932;28;20204;-63
2021/12/05 00:24:19;;;;;;;10.10;9.20;;;;;;;9.24;90.91;99018.03;5014426;28;20210;-63
2021/12/05 00:26:52;;;;;;;9.27;8.47;;;;;;;9.26;90.92;99026.56;5014143;28;20337;-62
2021/12/05 00:29:27;;;;;;;8.63;7.97;;;;;;;9.19;91.78;99020.47;5014649;28;20272;-63
2021/12/05 00:34:53;;;;;;;9.77;8.77;;;;;;;9.06;91.51;99023.88;5014083;28;20174;-62
2021/12/05 01:03:26;;;;;;;6.60;6.00;;;;;;;8.84;92.87;99000.34;5068211;28;20195;-62
2021/12/05 01:11:44;;;;;;;5.60;5.20;;;;;;;8.71;91.77;99005.56;5082216;28;20191;-63
2021/12/05 01:14:24;;;;;;;5.30;5.00;;;;;;;8.75;92.29;98990.94;5089110;28;20192;-63
2021/12/05 01:16:52;;;;;;;5.43;5.13;;;;;;;8.82;91.86;99002.38;5089061;28;20187;-62
2021/12/05 01:19:22;;;;;;;6.07;5.47;;;;;;;8.71;90.55;98995.81;5089528;28;20202;-63
2021/12/05 01:21:51;;;;;;;7.23;6.63;;;;;;;8.88;90.58;99004.22;5089807;28;20282;-63
2021/12/05 01:24:28;;;;;;;7.20;6.60;;;;;;;8.84;91.39;99006.47;5088761;28;20223;-63
2021/12/05 01:27:00;;;;;;;10.77;9.63;;;;;;;8.79;91.32;99008.84;5088785;28;20579;-63
2021/12/05 01:29:36;;;;;;;9.90;9.17;;;;;;;8.79;91.40;99013.34;5089172;28;20188;-63
2021/12/05 01:32:13;;;;;;;9.90;9.20;;;;;;;8.74;91.25;99013.13;5080175;28;20195;-62
2021/12/05 01:34:54;;;;;;;10.67;9.67;;;;;;;8.68;91.95;99008.59;5072797;28;20282;-62
2021/12/05 01:37:29;;;;;;;11.83;10.83;;;;;;;8.67;91.66;99014.91;5087594;28;20195;-62
2021/12/05 01:40:23;;;;;;;13.90;12.43;;;;;;;8.67;91.66;99004.31;5089199;28;20633;-62
2021/12/05 01:46:06;;;;;;;14.73;13.37;;;;;;;8.28;93.02;98998.78;5088786;28;20238;-63
2021/12/05 01:57:10;;;;;;;10.07;9.07;;;;;;;8.62;92.82;98990.88;5061079;28;20278;-62
2021/12/05 01:59:57;;;;;;;9.23;8.63;;;;;;;8.56;91.95;98989.81;5075379;28;20180;-62
2021/12/05 02:08:35;;;;;;;8.83;8.03;;;;;;;8.40;94.52;98981.34;5074740;28;20183;-62
2021/12/05 02:11:21;;;;;;;9.43;7.70;;;;;;;8.49;94.42;98977.56;5075085;28;20206;-62
2021/12/05 02:16:46;;;;;;;8.07;7.27;;;;;;;8.34;94.47;98971.56;5074555;28;20550;-62
2021/12/05 02:30:55;;;;;;;7.93;6.13;;;;;;;8.64;93.21;98986.19;5074599;28;20225;-63
2021/12/05 02:36:29;;;;;;;6.70;6.00;;;;;;;8.33;94.33;98970.72;5074754;28;20306;-63
2021/12/05 02:39:16;;;;;;;7.80;6.10;;;;;;;8.19;94.73;98962.88;5074893;28;20272;-63
2021/12/05 02:41:44;;;;;;;6.30;5.60;;;;;;;8.17;95.42;98957.78;5075121;28;20192;-63
2021/12/05 02:44:20;;;;;;;8.77;7.17;;;;;;;8.14;95.72;98958.19;5074421;28;20236;-63
2021/12/05 02:46:49;;;;;;;7.00;6.40;;;;;;;8.22;95.99;98958.06;5073920;28;20180;-63
2021/12/05 02:49:16;;;;;;;9.43;7.37;;;;;;;8.25;95.96;98956.88;5073749;28;20659;-63
2021/12/05 02:51:51;;;;;;;7.03;6.43;;;;;;;8.24;95.90;98947.25;5073735;28;20200;-63
2021/12/05 02:54:20;;;;;;;9.57;7.00;;;;;;;8.32;95.56;98953.22;5074899;28;20270;-62
2021/12/05 02:56:50;;;;;;;8.00;7.20;;;;;;;8.35;95.66;98952.84;5073633;28;20192;-62
2021/12/05 02:59:24;;;;;;;8.87;7.57;;;;;;;8.28;95.50;98941.41;5073923;28;20286;-63
2021/12/05 03:01:56;;;;;;;8.47;7.67;;;;;;;8.40;95.58;98950.44;5074462;28;20184;-62
2021/12/05 03:04:26;;;;;;;8.27;7.47;;;;;;;8.33;94.67;98949.56;5073983;28;20184;-62
2021/12/05 03:06:54;;;;;;;10.23;8.30;;;;;;;8.42;94.51;98948.38;5073645;28;20196;-62
2021/12/05 03:09:23;;;;;;;11.30;7.07;;;;;;;8.44;94.69;98956.13;5072626;28;20192;-63
2021/12/05 03:11:52;;;;;;;11.63;8.20;;;;;;;8.48;94.67;98952.09;5073320;28;20662;-63
2021/12/05 03:14:19;;;;;;;8.80;7.97;;;;;;;8.30;94.88;98971.16;5073587;28;20193;-63
2021/12/05 03:16:46;;;;;;;11.23;8.43;;;;;;;8.33;95.37;98962.78;5073249;28;20195;-63
2021/12/05 03:19:15;;;;;;;13.90;8.67;;;;;;;8.42;95.00;98958.19;5073167;28;20674;-63
2021/12/05 03:21:43;;;;;;;9.27;8.47;;;;;;;8.47;95.26;98955.75;5073083;28;20196;-63
2021/12/05 03:24:12;;;;;;;13.43;8.93;;;;;;;8.52;94.47;98954.16;5074226;28;20253;-63
2021/12/05 03:26:42;;;;;;;9.20;8.27;;;;;;;8.60;95.23;98940.75;5073882;28;20223;-63
2021/12/05 03:29:11;;;;;;;10.00;8.33;;;;;;;8.71;94.07;98957.91;5073027;28;20242;-62
2021/12/05 03:31:38;;;;;;;9.83;8.80;;;;;;;8.79;94.12;98950.59;5072935;28;20671;-63
2021/12/05 03:34:07;;;;;;;9.73;8.23;;;;;;;8.82;93.57;98950.22;5072901;28;20192;-63
2021/12/05 03:36:35;;;;;;;12.43;8.87;;;;;;;8.52;93.78;98951.50;5073441;28;20229;-63
2021/12/05 03:39:03;;;;;;;8.37;7.60;;;;;;;8.60;93.44;98947.88;5072836;28;20550;-63
2021/12/05 03:41:31;;;;;;;13.67;8.90;;;;;;;8.50;93.86;98950.09;5073036;28;20282;-62
2021/12/05 03:44:01;;;;;;;10.20;8.57;;;;;;;8.65;92.88;98948.94;5072524;28;20253;-62
2021/12/05 03:46:29;;;;;;;12.23;8.77;;;;;;;8.72;92.97;98949.78;5073789;28;20204;-62
2021/12/05 03:48:58;;;;;;;12.23;9.07;;;;;;;8.80;92.93;98952.25;5072915;28;20253;-63
2021/12/05 03:51:28;;;;;;;16.63;9.30;;;;;;;8.86;93.27;98953.31;5072593;28;20731;-63
2021/12/05 03:53:55;;;;;;;14.47;9.70;;;;;;;8.91;92.84;98964.09;5073664;28;20245;-62
2021/12/05 03:56:22;;;;;;;16.10;9.47;;;;;;;9.00;92.73;98962.91;5072824;28;20200;-62
2021/12/05 03:58:51;;;;;;;19.13;9.37;;;;;;;9.06;92.01;98970.06;5073556;28;20196;-62
2021/12/05 04:01:20;;;;;;;14.60;8.87;;;;;;;9.08;91.31;98968.88;5072384;28;20250;-62
2021/12/05 04:03:49;;;;;;;12.97;8.93;;;;;;;9.15;91.81;98974.19;5072330;28;20241;-63
2021/12/05 04:06:20;;;;;;;13.17;8.97;;;;;;;9.19;90.80;98978.06;5073367;28;20288;-62
2021/12/05 04:08:48;;;;;;;21.47;10.23;;;;;;;9.20;91.08;98971.75;5073229;28;20184;-63
2021/12/05 04:11:17;;;;;;;16.60;9.27;;;;;;;9.18;90.89;98981.72;5072868;28;20188;-62
2021/12/05 04:13:44;;;;;;;13.40;9.87;;;;;;;9.17;91.01;98982.72;5072196;28;20199;-63
2021/12/05 04:16:14;;;;;;;16.13;11.93;;;;;;;9.18;90.23;98989.66;5073369;28;20195;-63
2021/12/05 04:18:45;;;;;;;21.43;12.03;;;;;;;9.21;91.06;98990.09;5072456;28;20567;-63
2021/12/05 04:21:14;;;;;;;21.73;13.13;;;;;;;9.22;90.79;98998.84;5072200;28;20557;-63
2021/12/05 04:23:41;;;;;;;22.33;13.43;;;;;;;9.27;91.26;99007.03;5072115;28;20196;-63
2021/12/05 04:26:08;;;;;;;20.80;11.93;;;;;;;9.27;90.64;99007.03;5072595;28;20223;-63
2021/12/05 04:28:35;;;;;;;19.13;13.47;;;;;;;9.26;90.36;99011.50;5072061;28;20621;-62
2021/12/05 04:31:02;;;;;;;21.33;13.17;;;;;;;9.19;90.19;99004.56;5072320;28;20245;-63
2021/12/05 04:33:30;;;;;;;21.77;12.43;;;;;;;9.17;90.41;98988.03;5073160;28;20192;-63
2021/12/05 04:35:58;;;;;;;21.07;13.57;;;;;;;9.23;91.05;98987.25;5072388;28;20196;-63
2021/12/05 04:38:26;;;;;;;15.73;12.67;;;;;;;9.24;91.27;98992.31;5072230;28;20257;-63
2021/12/05 04:40:53;;;;;;;20.27;12.87;;;;;;;9.27;91.13;98985.84;5072237;28;20238;-63
2021/12/05 04:43:19;;;;;;;23.60;12.00;;;;;;;9.31;90.54;98995.03;5071841;28;20253;-63
2021/12/05 04:45:47;;;;;;;18.70;13.47;;;;;;;9.26;90.82;98994.78;5071903;28;20690;-63
2021/12/05 04:48:15;;;;;;;18.23;13.10;;;;;;;9.30;90.64;99003.97;5072169;28;20249;-63
2021/12/05 04:50:42;;;;;;;18.70;13.17;;;;;;;9.31;90.98;98997.66;5072309;28;20278;-63
2021/12/05 04:53:10;;;;;;;16.80;11.63;;;;;;;9.24;90.14;98997.63;5072131;28;20287;-62
2021/12/05 04:55:38;;;;;;;16.47;12.03;;;;;;;9.20;89.92;98998.25;5071798;28;20249;-63
2021/12/05 04:58:05;;;;;;;17.10;11.90;;;;;;;9.17;90.12;99006.56;5071778;28;20196;-63
2021/12/05 05:00:37;;;;;;;19.40;10.80;;;;;;;9.19;90.44;99004.56;5072066;28;20222;-62
2021/12/05 05:03:04;;;;;;;14.87;10.70;;;;;;;9.18;90.78;99010.84;5072645;28;20189;-62
2021/12/05 05:05:32;;;;;;;17.57;11.23;;;;;;;9.18;90.23;99022.28;5072208;28;20301;-62
2021/12/05 05:07:59;;;;;;;18.93;9.77;;;;;;;9.14;90.85;99012.25;5072241;28;20196;-62
2021/12/05 05:10:30;;;;;;;20.30;10.23;;;;;;;9.16;90.86;99026.16;5071630;28;20238;-62
2021/12/05 05:12:57;;;;;;;12.80;10.57;;;;;;;9.19;91.33;99025.75;5071841;28;20192;-62
2021/12/05 05:15:27;;;;;;;21.67;10.90;;;;;;;9.18;90.54;99029.41;5071599;28;20724;-62
2021/12/05 05:17:56;;;;;;;19.50;11.70;;;;;;;9.23;90.72;99042.91;5071920;28;20230;-62
2021/12/05 05:20:31;;;;;;;22.00;12.03;;;;;;;9.24;90.82;99044.53;5071922;28;20191;-62
2021/12/05 05:23:16;;;;;;;22.33;11.80;;;;;;;9.22;90.36;99038.59;5071605;28;20275;-62
2021/12/05 05:28:57;;;;;;;26.03;13.73;;;;;;;9.16;90.12;99036.75;5072324;28;20275;-62
2021/12/05 05:39:53;;;;;;;28.90;13.03;;;;;;;9.26;90.35;99037.19;5075544;28;20229;-62
2021/12/05 05:45:43;;;;;;;26.67;12.10;;;;;;;9.29;90.20;99042.09;5075789;28;20231;-62
2021/12/05 05:50:55;;;;;;;25.17;12.80;;;;;;;9.26;88.97;99039.81;5075618;28;20278;-62
2021/12/05 05:53:22;;;;;;;21.27;12.43;;;;;;;9.27;89.88;99033.53;5074837;28;20585;-62
2021/12/05 05:55:49;;;;;;;26.57;12.03;;;;;;;9.21;89.85;99039.63;5074790;28;20670;-63
2021/12/05 05:58:20;;;;;;;27.10;12.07;;;;;;;9.17;89.85;99043.66;5074662;28;20726;-63
2021/12/05 06:00:58;;;;;;;22.17;10.83;;;;;;;9.24;89.30;99053.28;5075278;28;20216;-63
2021/12/05 06:03:25;;;;;;;23.30;11.07;;;;;;;9.29;90.06;99058.00;5075529;28;20215;-63
2021/12/05 06:05:54;;;;;;;23.47;11.67;;;;;;;9.29;89.09;99052.69;5074736;28;20285;-62
2021/12/05 06:08:24;;;;;;;29.43;13.17;;;;;;;9.32;89.54;99052.31;5074501;28;20680;-62
2021/12/05 06:10:51;;;;;;;28.43;12.57;;;;;;;9.24;88.81;99055.91;5074776;28;20202;-62
2021/12/05 06:13:20;;;;;;;24.20;12.67;;;;;;;9.21;89.64;99055.50;5075467;28;20184;-62
2021/12/05 06:15:48;;;;;;;24.70;11.90;;;;;;;9.26;89.85;99053.91;5075201;28;20250;-62
2021/12/05 06:18:15;;;;;;;24.10;12.50;;;;;;;9.19;89.74;99061.00;5074353;28;20245;-62
2021/12/05 06:20:42;;;;;;;25.23;12.00;;;;;;;9.19;89.36;99081.41;5074557;28;20254;-62
2021/12/05 06:23:10;;;;;;;17.00;8.20;;;;;;;9.13;91.23;99074.22;5074683;28;20274;-65
2021/12/05 06:25:39;;;;;;;26.10;10.27;;;;;;;9.37;91.96;99071.06;5073975;28;20215;-64
2021/12/05 06:28:11;;;;;;;32.47;13.63;;;;;;;9.56;91.29;99080.94;5073792;28;20701;-64
2021/12/05 06:30:48;;;;;;;27.37;12.97;;;;;;;9.66;91.81;99081.34;5074119;28;20216;-63
2021/12/05 06:41:47;;;;;;;23.47;12.17;;;;;;;11.11;89.02;99083.81;5074294;28;20655;-68
2021/12/05 06:47:01;;;;;;;19.70;10.20;;;;;;;11.39;85.18;99087.78;5073833;28;20210;-68
2021/12/05 06:49:28;;;;;;;18.40;10.57;;;;;;;11.65;87.11;99074.41;5074218;28;20248;-69
2021/12/05 06:51:54;;;;;;;21.87;12.17;;;;;;;11.89;84.46;99084.31;5073978;28;20286;-69
2021/12/05 06:54:22;;;;;;;23.20;12.03;;;;;;;12.08;82.46;99099.31;5074392;28;20190;-68
2021/12/05 06:56:49;;;;;;;28.07;12.93;;;;;;;12.24;83.07;99098.81;5074686;28;20313;-69
2021/12/05 06:59:16;;;;;;;32.87;16.07;;;;;;;12.34;79.69;99104.47;5073535;28;20198;-70
2021/12/05 07:01:43;;;;;;;25.27;14.77;;;;;;;12.43;79.97;99097.84;5071441;28;20742;-75
2021/12/05 07:04:22;;;;;;;23.13;12.37;;;;;;;12.37;77.55;99098.69;5071124;28;20197;-69
2021/12/05 07:06:49;;;;;;;20.70;11.60;;;;;;;12.45;78.73;99111.75;5073068;28;20761;-70
2021/12/05 07:09:15;;;;;;;26.57;12.90;;;;;;;12.44;76.54;99109.28;5073645;28;20199;-69
2021/12/05 07:11:50;;;;;;;28.17;15.10;;;;;;;12.25;75.04;99111.06;5073106;28;20730;-68
2021/12/05 07:17:08;;;;;;;26.20;13.70;;;;;;;11.77;77.63;99101.97;5062569;28;20196;-69
2021/12/05 07:19:49;;;;;;;18.87;10.53;;;;;;;11.90;80.15;99096.59;5073054;28;20205;-70
2021/12/05 07:22:21;;;;;;;17.83;12.10;;;;;;;11.97;79.18;99093.88;5073015;28;20652;-69
2021/12/05 07:24:52;;;;;;;13.57;8.63;;;;;;;12.11;80.09;99085.59;5073353;28;20545;-66
2021/12/05 07:41:15;;;;;;;20.37;12.57;;;;;;;11.47;78.30;99084.09;5052829;28;20231;-67
2021/12/05 07:43:42;;;;;;;34.00;16.03;;;;;;;11.29;78.20;99081.28;5052925;28;20189;-67
2021/12/05 07:46:08;;;;;;;23.13;12.97;;;;;;;11.13;79.61;99071.94;5052315;28;20278;-66
2021/12/05 07:48:39;;;;;;;28.17;14.57;;;;;;;11.02;80.29;99070.75;5052453;28;20628;-67
2021/12/05 07:51:13;;;;;;;29.10;13.73;;;;;;;11.03;80.70;99082.22;5053644;28;20186;-67
2021/12/05 07:53:49;;;;;;;30.67;17.20;;;;;;;10.92;80.39;99088.16;5066127;28;20196;-68
2021/12/05 07:56:21;;;;;;;23.87;14.00;;;;;;;10.72;81.75;99079.41;5071529;28;20663;-69
2021/12/05 07:59:01;;;;;;;29.43;15.13;;;;;;;10.72;81.75;99074.09;5070315;28;20220;-66
2021/12/05 08:15:13;;;;;;;45.63;23.50;;;;;;;10.70;83.20;99082.25;5052292;28;20215;-67
2021/12/05 08:17:41;;;;;;;49.30;25.20;;;;;;;10.73;82.48;99091.66;5052179;28;20251;-67
2021/12/05 08:20:11;;;;;;;56.83;28.47;;;;;;;10.70;82.62;99076.13;5050580;28;20192;-67
2021/12/05 08:22:39;;;;;;;55.30;27.53;;;;;;;10.00;85.47;99091.81;5062947;28;20259;-68
2021/12/05 08:25:12;;;;;;;57.33;30.40;;;;;;;10.02;85.87;99082.66;5071991;28;20260;-68
2021/12/05 08:27:42;;;;;;;56.20;30.10;;;;;;;9.99;85.83;99083.06;5071325;28;20769;-72
2021/12/05 08:30:11;;;;;;;66.03;28.10;;;;;;;10.15;86.70;99079.22;5071902;28;20223;-69
2021/12/05 08:32:51;;;;;;;51.50;25.10;;;;;;;10.27;85.97;99080.25;5071818;28;20196;-67
2021/12/05 08:35:37;;;;;;;53.37;23.73;;;;;;;10.40;85.63;99082.91;5071944;28;20191;-68
2021/12/05 08:39:07;;;;;;;59.17;26.10;;;;;;;10.53;85.33;99080.22;5071156;28;20620;-68
2021/12/05 08:41:48;;;;;;;53.73;23.50;;;;;;;10.68;84.66;99073.69;5070952;28;20191;-67
2021/12/05 08:44:44;;;;;;;51.90;23.97;;;;;;;10.80;83.53;99076.53;5067761;28;20227;-68
2021/12/05 09:21:09;;;;;;;60.33;25.13;;;;;;;11.44;81.07;99058.75;5075145;28;20572;-69
2021/12/05 09:24:13;;;;;;;54.50;25.70;;;;;;;11.45;80.30;99055.06;5075387;28;20234;-68
2021/12/05 09:29:56;;;;;;;52.97;25.67;;;;;;;10.78;82.75;99052.00;5073547;28;20989;-69
2021/12/05 09:52:41;;;;;;;62.93;30.80;;;;;;;11.08;82.75;99031.91;5074557;28;20188;-66
2021/12/05 10:06:44;;;;;;;60.10;29.67;;;;;;;11.24;81.18;99015.47;5074485;28;20605;-67
2021/12/05 10:06:46;;;;;;;55.50;28.67;;;;;;;11.37;80.34;98996.78;5074139;28;20769;-67
2021/12/05 10:09:25;;;;;;;54.07;30.27;;;;;;;11.44;79.74;98994.09;5075157;28;20224;-66
2021/12/05 10:12:04;;;;;;;53.17;29.70;;;;;;;11.57;80.32;99000.16;5074390;28;20185;-66
2021/12/05 10:14:46;;;;;;;66.47;30.87;;;;;;;11.70;79.81;99008.06;5073860;28;20834;-67
2021/12/05 10:17:48;;;;;;;115.30;33.33;;;;;;;11.82;78.62;99014.34;5074664;28;20186;-67
2021/12/05 10:26:06;;;;;;;52.63;29.43;;;;;;;11.86;78.20;99004.06;5074245;28;20251;-67
2021/12/05 10:26:35;;;;;;;52.30;29.77;;;;;;;11.84;78.31;99001.63;5070318;28;20201;-65
2021/12/05 10:35:04;;;;;;;58.30;29.63;;;;;;;12.00;77.91;98995.75;5073571;28;20181;-67
2021/12/05 10:37:46;;;;;;;58.17;30.40;;;;;;;11.83;78.38;98984.03;5074104;28;20190;-66
2021/12/05 10:40:19;;;;;;;66.43;34.13;;;;;;;11.73;78.66;98988.19;5073430;28;20182;-67
2021/12/05 10:42:48;;;;;;;62.20;30.23;;;;;;;11.65;78.97;98989.28;5074098;28;20209;-66
2021/12/05 10:45:31;;;;;;;53.13;27.60;;;;;;;11.63;79.39;98974.56;5074295;28;20291;-67
2021/12/05 10:48:03;;;;;;;56.37;28.53;;;;;;;11.79;78.66;98972.19;5073575;28;20711;-66
2021/12/05 10:50:33;;;;;;;56.03;32.63;;;;;;;11.83;77.66;98961.91;5074272;28;20186;-66
2021/12/05 10:53:39;;;;;;;49.43;27.03;;;;;;;11.90;77.99;98957.38;5072906;28;20617;-65
2021/12/05 10:56:13;;;;;;;47.50;26.63;;;;;;;11.85;78.24;98944.72;5031029;28;20671;-68
2021/12/05 10:58:47;;;;;;;50.40;27.30;;;;;;;11.88;78.32;98933.63;5031120;28;20188;-66
2021/12/05 11:01:20;;;;;;;50.87;26.97;;;;;;;11.97;77.62;98942.97;5055242;28;20223;-66
2021/12/05 11:03:50;;;;;;;52.53;27.37;;;;;;;12.03;77.50;98936.78;5073795;28;20190;-66
2021/12/05 11:06:26;;;;;;;46.70;27.07;;;;;;;12.05;77.56;98933.91;5073171;28;20240;-67
2021/12/05 11:08:58;;;;;;;50.93;27.60;;;;;;;12.11;77.34;98933.84;5070400;28;20216;-66
2021/12/05 11:11:26;;;;;;;50.50;27.50;;;;;;;12.16;76.94;98928.66;5072583;28;20734;-67
2021/12/05 11:13:54;;;;;;;50.43;27.53;;;;;;;12.07;76.75;98922.00;5072607;28;20213;-67
2021/12/05 11:16:37;;;;;;;50.87;28.80;;;;;;;12.16;76.70;98920.69;5072875;28;20244;-65
2021/12/05 11:19:10;;;;;;;57.43;27.57;;;;;;;12.10;77.16;98918.91;5070657;28;20187;-71
2021/12/05 11:21:46;;;;;;;52.53;27.73;;;;;;;12.17;76.56;98921.50;5068490;28;20190;-66
2021/12/05 11:24:18;;;;;;;45.70;26.00;;;;;;;12.10;76.57;98915.41;5062849;28;20243;-66
2021/12/05 11:27:02;;;;;;;55.80;29.77;;;;;;;12.15;77.37;98911.06;5071648;28;20210;-66
2021/12/05 11:29:41;;;;;;;52.03;29.63;;;;;;;12.25;76.33;98929.22;5066306;28;20206;-67
2021/12/05 11:32:13;;;;;;;60.33;33.03;;;;;;;12.33;76.03;98921.72;5070111;28;20196;-69
2021/12/05 11:34:40;;;;;;;52.03;29.33;;;;;;;12.40;75.80;98926.97;5071441;28;20660;-67
2021/12/05 11:37:07;;;;;;;52.63;29.13;;;;;;;12.43;75.65;98931.88;5072429;28;20198;-68
2021/12/05 11:39:35;;;;;;;55.87;30.77;;;;;;;12.44;75.48;98937.00;5071193;28;20240;-67
2021/12/05 11:42:02;;;;;;;51.70;29.80;;;;;;;12.39;75.61;98931.50;5070719;28;20195;-67
2021/12/05 11:44:28;;;;;;;52.67;28.83;;;;;;;12.28;75.91;98918.91;5069462;28;20275;-67
2021/12/05 11:46:55;;;;;;;54.13;28.23;;;;;;;12.24;76.30;98925.72;5070815;28;20713;-68
2021/12/05 11:49:25;;;;;;;51.63;28.63;;;;;;;12.24;76.74;98917.72;5070971;28;20256;-67
2021/12/05 11:51:55;;;;;;;52.43;27.17;;;;;;;12.27;76.37;98911.97;5071108;28;20740;-67
2021/12/05 11:54:26;;;;;;;50.30;28.33;;;;;;;12.39;75.38;98915.53;5062091;28;20552;-67
2021/12/05 11:56:58;;;;;;;51.50;28.33;;;;;;;12.39;74.69;98904.88;5051287;28;20241;-71
2021/12/05 11:59:27;;;;;;;48.27;28.10;;;;;;;12.41;75.29;98902.00;5049058;28;20615;-70
2021/12/05 12:02:04;;;;;;;45.43;27.87;;;;;;;12.38;76.02;98894.44;5049327;28;20666;-70
2021/12/05 12:04:45;;;;;;;54.50;28.40;;;;;;;12.33;76.03;98891.63;5050676;28;20312;-69
2021/12/05 12:07:23;;;;;;;48.30;25.97;;;;;;;12.22;75.24;98893.19;5051418;28;20264;-68
2021/12/05 12:09:54;;;;;;;50.17;27.83;;;;;;;12.28;75.80;98907.44;5052360;28;20711;-68
2021/12/05 12:12:24;;;;;;;57.47;28.63;;;;;;;12.33;75.69;98899.63;5071728;28;20311;-67
2021/12/05 12:14:51;;;;;;;53.67;28.33;;;;;;;12.35;75.64;98889.56;5071925;28;20184;-67
2021/12/05 12:17:19;;;;;;;46.87;27.67;;;;;;;12.40;75.75;98887.84;5072258;28;20276;-67
2021/12/05 12:19:48;;;;;;;52.20;26.87;;;;;;;12.35;76.17;98886.88;5072611;28;20194;-67
2021/12/05 12:22:16;;;;;;;46.53;26.37;;;;;;;12.26;75.81;98882.91;5072188;28;20200;-67
2021/12/05 12:24:43;;;;;;;51.97;28.40;;;;;;;12.11;76.99;98888.59;5072037;28;20666;-67
2021/12/05 12:27:12;;;;;;;47.80;26.30;;;;;;;12.10;77.08;98878.97;5071689;28;20222;-67
2021/12/05 12:29:41;;;;;;;43.70;27.33;;;;;;;12.10;76.76;98867.50;5051925;28;20690;-67
2021/12/05 12:32:14;;;;;;;82.23;46.20;;;;;;;12.11;77.35;98869.13;5051371;28;20762;-68
2021/12/05 12:34:43;;;;;;;71.47;38.10;;;;;;;12.14;77.30;98860.72;5051462;28;20577;-67
2021/12/05 12:37:12;;;;;;;60.27;35.10;;;;;;;12.17;77.49;98850.41;5051962;28;20249;-67
2021/12/05 12:39:41;;;;;;;57.50;32.10;;;;;;;12.16;77.50;98861.31;5051568;28;20198;-67
2021/12/05 12:42:15;;;;;;;55.53;31.43;;;;;;;12.14;77.42;98858.88;5051834;28;20233;-67
2021/12/05 12:45:09;;;;;;;51.33;28.00;;;;;;;12.10;77.34;98860.34;5051598;28;20317;-67
2021/12/05 12:47:39;;;;;;;55.87;28.80;;;;;;;12.15;77.43;98867.66;5052003;28;20252;-69
2021/12/05 12:50:35;;;;;;;50.13;28.87;;;;;;;12.22;76.83;98871.06;5062157;28;20186;-68
2021/12/05 12:53:10;;;;;;;55.00;30.17;;;;;;;12.11;76.34;98871.78;5068909;28;20665;-68
2021/12/05 12:55:41;;;;;;;44.97;25.67;;;;;;;12.12;75.91;98870.78;5068489;28;20709;-69
2021/12/05 12:58:10;;;;;;;40.63;25.23;;;;;;;12.17;76.29;98866.38;5071386;28;20249;-68
2021/12/05 13:00:42;;;;;;;47.27;25.77;;;;;;;12.15;76.04;98865.81;5068426;28;20217;-68
2021/12/05 13:03:27;;;;;;;48.03;30.07;;;;;;;12.21;76.00;98872.09;5069064;28;20229;-70
2021/12/05 13:11:48;;;;;;;42.27;23.93;;;;;;;12.34;75.50;98878.09;5069083;28;20193;-70
2021/12/05 13:14:15;;;;;;;32.27;22.83;;;;;;;12.26;76.08;98877.56;5071122;28;20198;-68
2021/12/05 13:16:45;;;;;;;44.27;27.40;;;;;;;12.11;76.25;98888.59;5070943;28;20202;-66
2021/12/05 13:19:14;;;;;;;39.37;25.67;;;;;;;12.05;76.40;98875.34;5071395;28;20252;-68
2021/12/05 13:21:43;;;;;;;39.23;26.03;;;;;;;11.93;77.27;98880.59;5069660;28;20193;-69
2021/12/05 13:24:25;;;;;;;39.27;26.60;;;;;;;11.96;77.73;98869.47;5071366;28;20259;-69
2021/12/05 13:26:55;;;;;;;43.70;26.10;;;;;;;11.99;77.13;98871.72;5071399;28;20189;-69
2021/12/05 13:29:24;;;;;;;41.73;25.47;;;;;;;12.04;77.75;98868.41;5053378;28;20676;-68
2021/12/05 13:31:57;;;;;;;44.83;25.83;;;;;;;12.08;77.02;98859.72;5051404;28;20272;-70
2021/12/05 13:34:46;;;;;;;43.87;26.50;;;;;;;12.11;77.02;98853.16;5069491;28;20280;-68
2021/12/05 13:37:28;;;;;;;37.40;22.50;;;;;;;12.06;77.18;98853.00;5071988;28;20190;-69
2021/12/05 13:40:04;;;;;;;36.63;20.63;;;;;;;12.07;76.85;98858.13;5070101;28;20203;-68
2021/12/05 13:42:42;;;;;;;33.93;20.83;;;;;;;12.01;77.09;98861.66;5071421;28;20244;-66
2021/12/05 13:45:17;;;;;;;34.03;21.87;;;;;;;12.08;76.80;98870.38;5070162;28;20237;-66
2021/12/05 13:48:07;;;;;;;40.40;24.60;;;;;;;12.12;76.20;98870.78;5070963;28;20217;-66
2021/12/05 13:50:37;;;;;;;35.13;23.30;;;;;;;12.09;76.02;98881.84;5068722;28;20674;-67
2021/12/05 13:53:52;;;;;;;40.53;24.07;;;;;;;12.03;76.71;98872.91;5053102;28;20221;-66
2021/12/05 13:56:25;;;;;;;37.63;23.57;;;;;;;11.96;76.92;98866.81;5012257;28;20206;-66
2021/12/05 13:58:56;;;;;;;39.53;23.43;;;;;;;11.93;77.15;98867.28;5051648;28;20198;-67
2021/12/05 14:01:29;;;;;;;38.23;22.77;;;;;;;11.94;77.39;98860.91;5054324;28;20248;-73
2021/12/05 14:04:26;;;;;;;39.73;24.13;;;;;;;11.96;77.13;98860.69;5074268;28;20191;-74
2021/12/05 14:06:55;;;;;;;40.17;24.17;;;;;;;11.95;76.92;98865.19;5069573;28;20199;-73
2021/12/05 14:09:27;;;;;;;44.13;24.67;;;;;;;11.89;77.18;98866.09;5074485;28;20225;-74
2021/12/05 14:11:58;;;;;;;47.03;26.53;;;;;;;11.88;77.47;98867.09;5074228;28;20186;-75
2021/12/05 14:14:29;;;;;;;41.53;25.10;;;;;;;11.89;77.52;98870.59;5055733;28;20202;-73
2021/12/05 14:16:58;;;;;;;44.80;25.70;;;;;;;11.89;77.42;98870.59;5054432;28;20187;-76
2021/12/05 14:19:30;;;;;;;45.17;27.50;;;;;;;11.86;77.47;98871.84;5067509;28;20204;-74
2021/12/05 14:21:59;;;;;;;49.10;27.47;;;;;;;11.83;77.25;98866.94;5074177;28;20582;-75
2021/12/05 14:24:29;;;;;;;54.90;30.77;;;;;;;11.85;77.60;98866.75;5073877;28;20664;-76
2021/12/05 14:26:59;;;;;;;75.93;43.27;;;;;;;11.76;77.93;98866.19;5073162;28;20256;-75
2021/12/05 14:29:28;;;;;;;58.07;33.33;;;;;;;11.73;78.34;98861.31;5072727;28;20217;-75
2021/12/05 14:31:58;;;;;;;58.27;32.80;;;;;;;11.70;78.53;98866.25;5073776;28;20665;-74
2021/12/05 14:34:25;;;;;;;62.63;32.90;;;;;;;11.65;78.51;98858.94;5070068;28;20206;-75
2021/12/05 14:36:56;;;;;;;53.33;30.50;;;;;;;11.61;78.84;98865.72;5073940;28;20242;-71
2021/12/05 14:39:27;;;;;;;60.17;34.17;;;;;;;11.53;79.47;98865.16;5072311;28;20197;-70
2021/12/05 14:41:57;;;;;;;56.67;34.97;;;;;;;11.48;79.44;98860.50;5074513;28;20184;-70
2021/12/05 14:44:24;;;;;;;55.57;33.37;;;;;;;11.46;79.85;98861.72;5071834;28;20387;-70
2021/12/05 14:46:57;;;;;;;55.83;30.67;;;;;;;11.34;80.20;98861.59;5062642;28;20253;-69
2021/12/05 14:49:27;;;;;;;52.63;31.13;;;;;;;11.31;80.92;98866.56;5053399;28;20242;-69
2021/12/05 14:51:56;;;;;;;47.70;29.27;;;;;;;11.30;80.29;98864.94;5053344;28;20252;-67
2021/12/05 14:54:28;;;;;;;54.90;31.33;;;;;;;11.30;80.95;98870.25;5053775;28;20194;-68
2021/12/05 14:56:55;;;;;;;49.03;29.83;;;;;;;11.28;81.01;98867.81;5063186;28;20617;-69
2021/12/05 14:59:23;;;;;;;46.93;29.57;;;;;;;11.29;81.52;98869.44;5073197;28;20209;-67
2021/12/05 15:01:53;;;;;;;49.27;28.83;;;;;;;11.29;81.38;98874.75;5072265;28;20748;-68
2021/12/05 15:04:22;;;;;;;40.77;25.53;;;;;;;11.26;81.51;98875.16;5073068;28;20632;-68
2021/12/05 15:06:50;;;;;;;35.67;24.40;;;;;;;11.03;81.86;98845.69;5072536;28;20205;-68
2021/12/05 15:09:22;;;;;;;42.53;25.23;;;;;;;11.23;82.22;98888.09;5073349;28;20221;-68
2021/12/05 15:11:51;;;;;;;42.13;25.43;;;;;;;11.10;82.54;98870.38;5073492;28;20243;-67
2021/12/05 15:14:18;;;;;;;45.87;27.43;;;;;;;11.25;82.47;98893.97;5072118;28;20248;-68
2021/12/05 15:16:53;;;;;;;47.43;26.27;;;;;;;11.12;82.52;98884.25;5073223;28;20197;-68
2021/12/05 15:19:20;;;;;;;43.77;25.47;;;;;;;11.26;83.77;98900.94;5071852;28;20272;-65
2021/12/05 15:21:47;;;;;;;51.40;29.20;;;;;;;11.34;83.80;98893.50;5073557;28;20197;-66
2021/12/05 15:24:15;;;;;;;54.77;26.47;;;;;;;11.34;82.79;98903.31;5071726;28;20197;-66
2021/12/05 15:26:43;;;;;;;45.27;27.33;;;;;;;11.35;82.69;98900.44;5073204;28;20281;-69
2021/12/05 15:29:10;;;;;;;49.57;27.67;;;;;;;11.37;82.32;98898.41;5072316;28;20318;-69
2021/12/05 15:31:39;;;;;;;49.03;28.53;;;;;;;11.37;82.22;98903.72;5072830;28;20656;-69
2021/12/05 15:34:23;;;;;;;47.40;28.73;;;;;;;11.41;82.03;98909.41;5071251;28;20251;-68
2021/12/05 15:36:50;;;;;;;42.60;26.53;;;;;;;11.43;82.15;98907.38;5073110;28;20182;-69